Terminal Aerodrome Forecast
Issued by NWS Memphis, TN

Home | Current Version | Previous Version | Text Only | Print | Product List | Glossary On
Versions: 1 2 3 4 5 6 7 8 9 10 11 12 13 14 15 16 17 18 19 20 21 22 23 24 25 26 27 28 29 30
698
FTUS44 KMEG 302323
TAFMEM
TAF
KMEM 302323Z 0100/0124 17008KT P6SM SCT050
     FM010200 17005KT P6SM VCTS SCT035CB BKN150
     FM010800 18004KT 4SM BR OVC012
      TEMPO 0109/0112 1/2SM FG OVC004
     FM011500 24007KT P6SM BKN020
     FM012200 28007KT P6SM SCT050=

USA.gov is the U.S. government's official web portal to all federal, state and local government web resources and services.